createdAt,value
2019-05-06T00:01:44.236Z,4.10
2019-05-06T00:04:14.313Z,4.10
2019-05-06T00:06:44.038Z,4.20
2019-05-06T00:09:14.691Z,4.10
2019-05-06T00:11:44.857Z,4.10
2019-05-06T00:14:14.562Z,4.10
2019-05-06T00:16:44.081Z,4.10
2019-05-06T00:19:13.899Z,4.10
2019-05-06T00:24:45.299Z,4.10
2019-05-06T00:27:39.393Z,4.00
2019-05-06T00:30:09.494Z,4.00
2019-05-06T00:32:38.911Z,4.00
2019-05-06T00:35:08.323Z,4.00
2019-05-06T00:37:37.988Z,4.00
2019-05-06T00:40:20.409Z,4.00
2019-05-06T00:42:57.037Z,4.00
2019-05-06T00:45:26.337Z,4.00
2019-05-06T00:47:55.777Z,4.00
2019-05-06T00:50:25.154Z,4.00
2019-05-06T00:52:55.335Z,4.10
2019-05-06T00:55:24.635Z,4.10
2019-05-06T00:57:54.484Z,4.00
2019-05-06T01:00:28.358Z,4.00
2019-05-06T01:02:57.656Z,4.00
2019-05-06T01:05:27.243Z,3.90
2019-05-06T01:07:56.658Z,3.90
2019-05-06T01:10:25.946Z,3.90
2019-05-06T01:13:20.422Z,3.90
2019-05-06T01:15:49.732Z,3.80
2019-05-06T01:18:19.017Z,3.90
2019-05-06T01:20:48.341Z,3.80
2019-05-06T01:23:17.616Z,3.70
2019-05-06T01:25:46.916Z,3.80
2019-05-06T01:28:16.311Z,3.80
2019-05-06T01:30:46.006Z,3.80
2019-05-06T01:33:15.297Z,3.80
2019-05-06T01:35:44.660Z,3.80
2019-05-06T01:38:28.161Z,3.80
2019-05-06T01:41:09.033Z,3.80
2019-05-06T01:43:38.354Z,3.80
2019-05-06T01:46:07.653Z,3.80
2019-05-06T01:49:04.089Z,3.70
2019-05-06T01:51:34.762Z,3.70
2019-05-06T01:54:04.288Z,3.60
2019-05-06T01:56:33.851Z,3.50
2019-05-06T01:59:04.580Z,3.40
2019-05-06T02:01:34.403Z,3.40
2019-05-06T02:04:04.524Z,3.30
2019-05-06T02:06:34.423Z,3.30
2019-05-06T02:09:04.755Z,3.30
2019-05-06T02:11:34.112Z,3.40
2019-05-06T02:14:04.820Z,3.30
2019-05-06T02:16:34.441Z,3.40
2019-05-06T02:19:04.240Z,3.50
2019-05-06T02:22:10.852Z,3.50
2019-05-06T02:24:44.028Z,3.50
2019-05-06T02:27:13.983Z,3.30
2019-05-06T02:29:49.008Z,3.40
2019-05-06T02:32:40.293Z,3.50
2019-05-06T02:35:18.794Z,3.50
2019-05-06T02:37:48.148Z,3.50
2019-05-06T02:40:25.048Z,3.50
2019-05-06T02:42:54.623Z,3.60
2019-05-06T02:45:24.625Z,3.50
2019-05-06T02:48:06.186Z,3.40
2019-05-06T02:50:53.841Z,3.40
2019-05-06T02:53:26.152Z,3.40
2019-05-06T02:55:55.784Z,3.40
2019-05-06T02:58:25.073Z,3.30
2019-05-06T03:00:54.337Z,3.30
2019-05-06T03:03:23.621Z,3.30
2019-05-06T03:05:53.457Z,3.30
2019-05-06T03:08:23.637Z,3.30
2019-05-06T03:10:53.766Z,3.30
2019-05-06T03:13:23.822Z,3.30
2019-05-06T03:15:54.181Z,3.20
2019-05-06T03:18:23.984Z,3.10
2019-05-06T03:21:07.731Z,3.10
2019-05-06T03:23:39.940Z,3.10
2019-05-06T03:26:09.312Z,3.00
2019-05-06T03:28:38.581Z,2.90
2019-05-06T03:31:08.437Z,2.80
2019-05-06T03:33:56.878Z,2.80
2019-05-06T03:36:23.672Z,2.70
2019-05-06T03:38:42.964Z,2.60
2019-05-06T03:41:13.637Z,2.50
2019-05-06T03:43:43.361Z,2.50
2019-05-06T03:46:23.187Z,2.50
2019-05-06T03:48:55.012Z,2.50
2019-05-06T03:51:24.331Z,2.50
2019-05-06T03:53:56.711Z,2.40
2019-05-06T03:56:26.541Z,2.40
2019-05-06T03:58:58.137Z,2.40
2019-05-06T04:01:27.594Z,2.40
2019-05-06T04:03:57.568Z,2.50
2019-05-06T04:06:27.076Z,2.50
2019-05-06T04:08:56.792Z,2.60
2019-05-06T04:11:26.168Z,2.60
2019-05-06T04:13:55.930Z,2.70
2019-05-06T04:16:44.248Z,2.70
2019-05-06T04:19:23.682Z,2.70
2019-05-06T04:21:58.769Z,2.70
2019-05-06T04:24:47.074Z,2.70
2019-05-06T04:27:33.569Z,2.70
2019-05-06T04:30:04.604Z,2.70
2019-05-06T04:32:34.485Z,2.70
2019-05-06T04:35:04.622Z,2.60
2019-05-06T04:37:34.517Z,2.60
2019-05-06T04:40:04.694Z,2.50
2019-05-06T04:42:34.671Z,2.60
2019-05-06T04:45:04.829Z,2.60
2019-05-06T04:47:34.227Z,2.60
2019-05-06T04:50:04.740Z,2.60
2019-05-06T04:52:34.522Z,2.60
2019-05-06T04:55:04.008Z,2.70
2019-05-06T04:57:33.829Z,2.80
2019-05-06T05:00:04.425Z,2.90
2019-05-06T05:02:34.011Z,2.90
2019-05-06T05:05:04.361Z,3.00
2019-05-06T05:07:34.197Z,3.10
2019-05-06T05:10:13.449Z,3.10
2019-05-06T05:12:59.453Z,3.10
2019-05-06T05:16:02.267Z,3.10
2019-05-06T05:18:42.477Z,3.30
2019-05-06T05:21:12.135Z,3.30
2019-05-06T05:23:42.857Z,3.30
2019-05-06T05:26:12.230Z,3.40
2019-05-06T05:28:42.968Z,3.40
2019-05-06T05:31:12.431Z,3.50
2019-05-06T05:33:42.303Z,3.50
2019-05-06T05:36:12.411Z,3.50
2019-05-06T05:38:42.881Z,3.60
2019-05-06T05:41:12.416Z,3.60
2019-05-06T05:43:59.100Z,3.60
2019-05-06T05:46:28.497Z,3.60
2019-05-06T05:49:24.597Z,3.60
2019-05-06T05:51:53.749Z,3.60
2019-05-06T05:54:23.294Z,3.80
2019-05-06T05:56:53.007Z,3.90
2019-05-06T05:59:23.743Z,3.90
2019-05-06T06:01:53.635Z,4.00
2019-05-06T06:04:23.602Z,4.00
2019-05-06T06:06:53.085Z,4.10
2019-05-06T06:09:25.108Z,4.20
2019-05-06T06:11:57.091Z,4.20
2019-05-06T06:14:56.208Z,4.30
2019-05-06T06:17:47.208Z,4.40
2019-05-06T06:20:35.029Z,4.40
2019-05-06T06:23:10.259Z,4.40
2019-05-06T06:25:39.550Z,4.50
2019-05-06T06:28:08.857Z,4.50
2019-05-06T06:30:46.196Z,4.50
2019-05-06T06:33:16.183Z,4.50
2019-05-06T06:35:52.674Z,4.60
2019-05-06T06:38:55.895Z,4.60
2019-05-06T06:41:25.201Z,4.70
2019-05-06T06:43:58.973Z,4.70
2019-05-06T06:46:28.340Z,4.80
2019-05-06T06:48:58.055Z,5.00
2019-05-06T06:51:27.360Z,5.10
2019-05-06T06:56:32.986Z,5.80
2019-05-06T06:59:18.269Z,5.50
2019-05-06T07:02:03.015Z,6.10
2019-05-06T07:04:37.251Z,6.50
2019-05-06T07:07:06.738Z,6.90
2019-05-06T07:09:36.684Z,7.10
2019-05-06T07:12:06.017Z,7.30
2019-05-06T07:14:36.268Z,7.60
2019-05-06T07:17:05.714Z,7.60
2019-05-06T07:19:42.285Z,9.50
2019-05-06T07:22:12.735Z,8.10
2019-05-06T07:24:43.081Z,8.10
2019-05-06T07:27:19.621Z,8.00
2019-05-06T07:29:49.186Z,7.30
2019-05-06T07:32:18.501Z,7.40
2019-05-06T07:34:47.803Z,7.60
2019-05-06T07:37:17.051Z,8.10
2019-05-06T07:39:46.548Z,8.40
2019-05-06T07:42:22.706Z,8.30
2019-05-06T07:45:16.937Z,8.60
2019-05-06T07:47:52.908Z,8.40
2019-05-06T07:50:22.375Z,8.50
2019-05-06T07:53:06.790Z,9.10
2019-05-06T07:55:36.724Z,8.90
2019-05-06T07:58:06.415Z,8.80
2019-05-06T08:00:36.349Z,8.90
2019-05-06T08:03:05.873Z,9.10
2019-05-06T08:05:35.090Z,9.20
2019-05-06T08:08:05.865Z,9.10
2019-05-06T08:10:35.156Z,9.10
2019-05-06T08:13:04.424Z,9.10
2019-05-06T08:15:33.803Z,8.80
2019-05-06T08:18:03.673Z,9.00
2019-05-06T08:20:38.957Z,9.30
2019-05-06T08:23:17.627Z,9.40
2019-05-06T08:25:49.070Z,8.70
2019-05-06T08:28:18.381Z,8.80
2019-05-06T08:30:47.690Z,7.80
2019-05-06T08:33:17.442Z,7.20
2019-05-06T08:35:47.075Z,7.50
2019-05-06T08:38:16.428Z,7.60
2019-05-06T08:40:45.782Z,7.70
2019-05-06T08:43:15.094Z,7.80
2019-05-06T08:45:44.466Z,8.00
2019-05-06T08:48:13.841Z,8.60
2019-05-06T08:50:49.897Z,8.90
2019-05-06T08:53:24.420Z,9.40
2019-05-06T08:55:53.774Z,9.40
2019-05-06T08:58:43.172Z,9.70
2019-05-06T09:01:15.243Z,9.20
2019-05-06T09:03:44.553Z,8.20
2019-05-06T09:06:26.537Z,7.90
2019-05-06T09:08:44.904Z,8.50
2019-05-06T09:11:14.146Z,9.30
2019-05-06T09:13:43.361Z,10.10
2019-05-06T09:16:13.059Z,10.20
2019-05-06T09:18:42.797Z,10.30
2019-05-06T09:21:12.379Z,10.40
2019-05-06T09:23:42.429Z,9.90
2019-05-06T09:26:13.950Z,10.10
2019-05-06T09:28:49.033Z,9.90
2019-05-06T09:31:22.986Z,9.20
2019-05-06T09:33:57.508Z,8.40
2019-05-06T09:36:39.986Z,9.00
2019-05-06T09:38:57.917Z,9.50
2019-05-06T09:41:27.209Z,9.70
2019-05-06T09:43:56.530Z,10.00
2019-05-06T09:46:25.877Z,9.60
2019-05-06T09:49:06.465Z,9.10
2019-05-06T09:51:35.771Z,9.10
2019-05-06T09:54:32.199Z,9.00
2019-05-06T09:57:05.873Z,8.50
2019-05-06T09:59:35.200Z,8.20
2019-05-06T10:02:04.721Z,8.70
2019-05-06T10:04:34.052Z,8.80
2019-05-06T10:07:03.433Z,8.90
2019-05-06T10:09:32.777Z,8.90
2019-05-06T10:12:02.171Z,9.20
2019-05-06T10:14:32.182Z,9.10
2019-05-06T10:17:04.487Z,8.70
2019-05-06T10:19:32.840Z,9.00
2019-05-06T10:22:03.556Z,9.10
2019-05-06T10:24:33.028Z,9.10
2019-05-06T10:27:02.612Z,9.10
2019-05-06T10:29:49.518Z,9.10
2019-05-06T10:32:49.766Z,9.00
2019-05-06T10:35:19.393Z,9.20
2019-05-06T10:38:22.759Z,9.30
2019-05-06T10:41:03.672Z,9.20
2019-05-06T10:43:43.121Z,8.80
2019-05-06T10:46:13.201Z,8.70
2019-05-06T10:48:42.643Z,9.00
2019-05-06T10:51:22.919Z,9.00
2019-05-06T10:53:52.526Z,9.00
2019-05-06T10:56:52.349Z,9.00
2019-05-06T10:59:13.043Z,9.10
2019-05-06T11:01:43.290Z,9.10
2019-05-06T11:04:12.646Z,9.00
2019-05-06T11:06:43.023Z,9.00
2019-05-06T11:09:13.550Z,8.80
2019-05-06T11:11:42.949Z,8.80
2019-05-06T11:14:12.914Z,8.70
2019-05-06T11:16:42.340Z,8.80
2019-05-06T11:19:13.348Z,8.90
2019-05-06T11:21:45.052Z,9.00
2019-05-06T11:24:14.092Z,9.20
2019-05-06T11:26:43.543Z,9.10
2019-05-06T11:29:21.621Z,8.80
2019-05-06T11:31:58.126Z,8.80
2019-05-06T11:34:58.516Z,8.60
2019-05-06T11:37:50.979Z,8.60
2019-05-06T11:40:18.773Z,8.50
2019-05-06T11:42:48.289Z,8.50
2019-05-06T11:45:18.317Z,8.60
2019-05-06T11:47:48.369Z,8.90
2019-05-06T11:50:17.886Z,9.10
2019-05-06T11:52:47.488Z,9.20
2019-05-06T11:55:28.851Z,9.30
2019-05-06T11:57:48.209Z,9.30
2019-05-06T12:00:23.374Z,9.40
2019-05-06T12:02:53.319Z,9.30
2019-05-06T12:05:22.967Z,9.30
2019-05-06T12:08:01.757Z,8.90
2019-05-06T12:10:24.147Z,8.70
2019-05-06T12:12:53.559Z,8.60
2019-05-06T12:15:25.063Z,8.70
2019-05-06T12:17:54.426Z,8.90
2019-05-06T12:20:25.793Z,8.70
2019-05-06T12:22:55.355Z,8.60
2019-05-06T12:25:24.737Z,8.40
2019-05-06T12:27:54.052Z,8.50
2019-05-06T12:30:24.303Z,8.70
2019-05-06T12:33:13.023Z,8.90
2019-05-06T12:35:45.959Z,9.00
2019-05-06T12:38:29.669Z,9.10
2019-05-06T12:40:53.048Z,8.80
2019-05-06T12:43:43.252Z,8.90
2019-05-06T12:46:17.638Z,9.00
2019-05-06T12:48:47.076Z,9.10
2019-05-06T12:51:16.368Z,9.30
2019-05-06T12:53:45.711Z,9.40
2019-05-06T12:56:15.124Z,9.50
2019-05-06T12:58:44.535Z,9.70
2019-05-06T13:01:14.131Z,9.80
2019-05-06T13:03:44.018Z,9.90
2019-05-06T13:06:13.547Z,10.40
2019-05-06T13:08:56.550Z,10.50
2019-05-06T13:11:14.601Z,10.90
2019-05-06T13:13:56.768Z,11.00
2019-05-06T13:16:15.487Z,11.10
2019-05-06T13:18:47.362Z,11.20
2019-05-06T13:21:16.345Z,11.30
2019-05-06T13:24:06.144Z,11.30
2019-05-06T13:26:35.916Z,11.20
2019-05-06T13:29:13.018Z,11.30
2019-05-06T13:31:43.591Z,11.50
2019-05-06T13:34:16.925Z,11.60
2019-05-06T13:36:46.977Z,12.00
2019-05-06T13:52:04.016Z,12.30
2019-05-06T13:54:32.068Z,12.50
2019-05-06T13:57:02.957Z,12.80
2019-05-06T13:59:35.138Z,12.80
2019-05-06T14:02:28.614Z,13.00
2019-05-06T14:04:59.587Z,13.00
2019-05-06T14:07:34.659Z,12.90
2019-05-06T14:10:05.885Z,12.50
2019-05-06T14:12:35.789Z,12.70
2019-05-06T14:15:05.984Z,12.70
2019-05-06T14:17:35.329Z,12.60
2019-05-06T14:20:06.449Z,12.50
2019-05-06T14:22:39.242Z,12.40
2019-05-06T14:25:23.257Z,12.10
2019-05-06T14:27:56.462Z,11.80
2019-05-06T14:30:44.201Z,11.60
2019-05-06T14:33:15.717Z,11.50
2019-05-06T14:35:47.717Z,11.70
2019-05-06T14:38:18.554Z,11.80
2019-05-06T14:41:18.755Z,12.10
2019-05-06T14:43:48.138Z,11.60
2019-05-06T14:46:17.655Z,11.20
2019-05-06T14:48:48.548Z,11.10
2019-05-06T14:51:18.264Z,11.00
2019-05-06T14:53:47.706Z,11.00
2019-05-06T14:56:35.996Z,10.90
2019-05-06T14:59:06.596Z,10.90
2019-05-06T15:01:37.336Z,11.00
2019-05-06T15:04:06.871Z,11.30
2019-05-06T15:06:36.517Z,11.30
2019-05-06T15:09:08.282Z,11.10
2019-05-06T15:11:38.681Z,10.90
2019-05-06T15:14:08.722Z,10.80
2019-05-06T15:16:38.192Z,10.70
2019-05-06T15:19:12.732Z,10.40
2019-05-06T15:21:42.715Z,9.70
2019-05-06T15:24:13.794Z,8.80
2019-05-06T15:26:43.673Z,8.40
2019-05-06T15:29:13.337Z,7.80
2019-05-06T15:31:53.052Z,7.60
2019-05-06T15:34:28.137Z,7.60
2019-05-06T15:37:07.357Z,7.50
2019-05-06T15:39:36.690Z,7.40
2019-05-06T15:42:06.310Z,7.40
2019-05-06T15:44:35.665Z,7.40
2019-05-06T15:47:05.000Z,7.40
2019-05-06T15:49:34.435Z,7.40
2019-05-06T15:52:05.766Z,7.50
2019-05-06T15:54:35.193Z,7.40
2019-05-06T15:57:04.632Z,7.40
2019-05-06T15:59:33.993Z,7.30
2019-05-06T16:02:03.452Z,7.40
2019-05-06T16:04:33.038Z,7.40
2019-05-06T16:07:02.990Z,7.40
2019-05-06T16:09:32.942Z,7.40
2019-05-06T16:12:03.111Z,7.30
2019-05-06T16:14:34.883Z,7.30
2019-05-06T16:17:03.631Z,7.40
2019-05-06T16:19:33.750Z,7.30
2019-05-06T16:36:07.594Z,7.50
2019-05-06T16:38:37.057Z,7.50
2019-05-06T16:41:12.896Z,7.70
2019-05-06T16:43:37.632Z,7.50
2019-05-06T16:46:07.137Z,7.40
2019-05-06T16:48:36.438Z,7.30
2019-05-06T16:51:05.859Z,7.10
2019-05-06T16:53:35.302Z,7.10
2019-05-06T16:56:29.329Z,7.10
2019-05-06T16:59:02.891Z,6.80
2019-05-06T17:01:34.529Z,6.60
2019-05-06T17:04:27.373Z,6.70
2019-05-06T17:06:56.602Z,6.70
2019-05-06T17:09:27.661Z,6.70
2019-05-06T17:11:57.267Z,6.70
2019-05-06T17:14:26.721Z,6.80
2019-05-06T17:16:56.060Z,6.90
2019-05-06T17:19:25.426Z,7.00
2019-05-06T17:21:54.715Z,6.90
2019-05-06T17:24:24.017Z,7.00
2019-05-06T17:26:56.273Z,7.10
2019-05-06T17:29:42.808Z,7.20
2019-05-06T17:32:33.516Z,7.30
2019-05-06T17:35:02.877Z,7.30
2019-05-06T17:37:49.595Z,7.30
2019-05-06T17:40:22.797Z,7.30
2019-05-06T17:42:53.269Z,7.30
2019-05-06T17:45:58.448Z,7.30
2019-05-06T17:48:38.714Z,7.20
2019-05-06T17:51:13.553Z,7.20
2019-05-06T17:53:45.799Z,7.20
2019-05-06T17:56:15.138Z,7.20
2019-05-06T17:58:44.714Z,7.10
2019-05-06T18:01:16.268Z,7.10
2019-05-06T18:03:46.079Z,7.10
2019-05-06T18:06:15.419Z,7.10
2019-05-06T18:08:44.781Z,7.00
2019-05-06T18:11:14.281Z,7.00
2019-05-06T18:13:43.677Z,7.00
2019-05-06T18:16:13.331Z,7.00
2019-05-06T18:18:43.722Z,7.00
2019-05-06T18:21:13.167Z,6.90
2019-05-06T18:23:42.424Z,6.90
2019-05-06T18:26:11.734Z,7.00
2019-05-06T18:28:43.074Z,6.90
2019-05-06T18:31:12.572Z,7.00
2019-05-06T18:33:43.122Z,7.00
2019-05-06T18:36:13.047Z,7.00
2019-05-06T18:38:42.676Z,7.00
2019-05-06T18:41:12.236Z,7.00
2019-05-06T18:43:42.301Z,6.90
2019-05-06T18:46:12.311Z,6.90
2019-05-06T18:48:42.665Z,7.00
2019-05-06T18:51:12.660Z,6.90
2019-05-06T18:53:42.375Z,7.00
2019-05-06T18:56:12.647Z,7.00
2019-05-06T18:58:42.926Z,7.00
2019-05-06T19:01:13.276Z,7.00
2019-05-06T19:03:55.460Z,7.00
2019-05-06T19:06:25.208Z,7.00
2019-05-06T19:09:04.430Z,7.00
2019-05-06T19:11:34.479Z,6.90
2019-05-06T19:14:05.725Z,6.90
2019-05-06T19:16:48.783Z,6.90
2019-05-06T19:19:07.566Z,6.90
2019-05-06T19:21:37.786Z,6.90
2019-05-06T19:24:07.811Z,6.90
2019-05-06T19:26:37.417Z,6.90
2019-05-06T19:29:07.321Z,6.90
2019-05-06T19:31:37.094Z,6.90
2019-05-06T19:34:07.663Z,6.80
2019-05-06T19:36:37.337Z,6.80
2019-05-06T19:39:08.360Z,6.80
2019-05-06T19:41:37.635Z,6.70
2019-05-06T19:44:07.286Z,6.70
2019-05-06T19:46:36.527Z,6.60
2019-05-06T19:49:05.880Z,6.60
2019-05-06T19:51:35.127Z,6.60
2019-05-06T19:54:04.832Z,6.50
2019-05-06T19:56:34.150Z,6.50
2019-05-06T19:59:03.566Z,6.50
2019-05-06T20:01:32.931Z,6.60
2019-05-06T20:04:02.660Z,6.60
2019-05-06T20:06:55.205Z,6.50
2019-05-06T20:09:45.911Z,6.50
2019-05-06T20:12:35.037Z,6.50
2019-05-06T20:15:22.211Z,6.50
2019-05-06T20:17:52.121Z,6.50
2019-05-06T20:20:22.888Z,6.50
2019-05-06T20:22:52.389Z,6.50
2019-05-06T20:25:22.108Z,6.50
2019-05-06T20:27:52.650Z,6.50
2019-05-06T20:30:22.064Z,6.50
2019-05-06T20:32:52.154Z,6.50
2019-05-06T20:35:22.558Z,6.60
2019-05-06T20:37:53.394Z,6.50
2019-05-06T20:40:23.260Z,6.50
2019-05-06T20:42:52.680Z,6.40
2019-05-06T20:45:22.481Z,6.40
2019-05-06T20:47:52.495Z,6.50
2019-05-06T20:50:22.657Z,6.50
2019-05-06T20:52:52.246Z,6.50
2019-05-06T20:55:22.906Z,6.50
2019-05-06T20:57:52.996Z,6.50
2019-05-06T21:00:22.608Z,6.50
2019-05-06T21:02:53.474Z,6.50
2019-05-06T21:05:22.975Z,6.50
2019-05-06T21:07:52.709Z,6.50
2019-05-06T21:10:22.219Z,6.50
2019-05-06T21:12:53.216Z,6.50
2019-05-06T21:15:23.150Z,6.50
2019-05-06T21:17:52.470Z,6.50
2019-05-06T21:20:21.685Z,6.50
2019-05-06T21:22:52.755Z,6.50
2019-05-06T21:25:22.649Z,6.50
2019-05-06T21:27:53.181Z,6.60
2019-05-06T21:30:22.668Z,6.60
2019-05-06T21:32:52.183Z,6.60
2019-05-06T21:35:22.247Z,6.60
2019-05-06T21:37:52.916Z,6.60
2019-05-06T21:40:22.411Z,6.50
2019-05-06T21:42:51.621Z,6.50
2019-05-06T21:45:22.149Z,6.50
2019-05-06T21:47:52.993Z,6.50
2019-05-06T21:50:22.867Z,6.50
2019-05-06T21:52:52.816Z,6.50
2019-05-06T21:55:22.722Z,6.50
2019-05-06T21:57:52.993Z,6.50
2019-05-06T22:00:25.522Z,6.50
2019-05-06T22:02:54.847Z,6.50
2019-05-06T22:05:24.173Z,6.50
2019-05-06T22:07:53.492Z,6.40
2019-05-06T22:10:25.083Z,6.40
2019-05-06T22:12:53.854Z,6.40
2019-05-06T22:15:23.220Z,6.40
2019-05-06T22:17:54.464Z,6.40
2019-05-06T22:20:23.789Z,6.40
2019-05-06T22:22:53.174Z,6.40
2019-05-06T22:25:22.544Z,6.40
2019-05-06T22:27:52.048Z,6.30
2019-05-06T22:30:23.654Z,6.30
2019-05-06T22:32:52.794Z,6.40
2019-05-06T22:35:23.093Z,6.40
2019-05-06T22:37:53.087Z,6.40
2019-05-06T22:40:23.864Z,6.30
2019-05-06T22:42:53.222Z,6.30
2019-05-06T22:45:22.573Z,6.30
2019-05-06T22:47:53.421Z,6.30
2019-05-06T22:50:22.884Z,6.30
2019-05-06T22:52:52.929Z,6.30
2019-05-06T22:55:22.271Z,6.30
2019-05-06T22:57:52.999Z,6.30
2019-05-06T23:00:25.037Z,6.30
2019-05-06T23:03:02.258Z,6.30
2019-05-06T23:05:32.568Z,6.30
2019-05-06T23:08:02.802Z,6.20
2019-05-06T23:10:33.738Z,6.20
2019-05-06T23:13:03.238Z,6.20
2019-05-06T23:15:34.173Z,6.20
2019-05-06T23:18:03.666Z,6.20
2019-05-06T23:20:33.008Z,6.20
2019-05-06T23:23:02.428Z,6.20
2019-05-06T23:25:33.372Z,6.20
2019-05-06T23:28:02.905Z,6.10
2019-05-06T23:30:33.463Z,6.10
2019-05-06T23:33:02.949Z,6.10
2019-05-06T23:35:32.227Z,6.00
2019-05-06T23:38:36.878Z,5.90
2019-05-06T23:41:42.310Z,5.80
2019-05-06T23:44:47.317Z,5.80
2019-05-06T23:47:53.113Z,5.70
2019-05-06T23:50:57.760Z,5.70
2019-05-06T23:54:03.155Z,5.60
2019-05-06T23:56:43.170Z,5.70
2019-05-06T23:59:12.934Z,5.80
